createdAt,value
2023-01-28T00:01:44.073Z,4.57
2023-01-28T00:04:13.353Z,5.03
2023-01-28T00:06:42.345Z,4.50
2023-01-28T00:09:11.589Z,5.27
2023-01-28T00:11:40.306Z,4.07
2023-01-28T00:14:09.013Z,4.40
2023-01-28T00:16:39.082Z,4.93
2023-01-28T00:19:07.864Z,3.70
2023-01-28T00:21:36.533Z,4.10
2023-01-28T00:24:07.202Z,5.27
2023-01-28T00:26:35.864Z,3.60
2023-01-28T00:29:05.316Z,3.83
2023-01-28T00:31:34.566Z,3.97
2023-01-28T00:34:04.938Z,3.60
2023-01-28T00:36:34.092Z,3.90
2023-01-28T00:39:03.124Z,3.83
2023-01-28T00:41:31.982Z,3.77
2023-01-28T00:44:00.948Z,3.97
2023-01-28T00:46:31.084Z,3.43
2023-01-28T00:48:59.700Z,3.40
2023-01-28T00:51:29.768Z,3.70
2023-01-28T00:53:58.418Z,3.50
2023-01-28T00:56:29.152Z,3.50
2023-01-28T00:58:57.951Z,3.57
2023-01-28T01:01:28.335Z,3.10
2023-01-28T01:04:03.166Z,3.63
2023-01-28T01:06:36.779Z,3.73
2023-01-28T01:09:08.624Z,3.80
2023-01-28T01:11:37.721Z,3.40
2023-01-28T01:14:07.239Z,3.63
2023-01-28T01:16:36.631Z,3.37
2023-01-28T01:19:05.500Z,4.20
2023-01-28T01:21:36.477Z,3.83
2023-01-28T01:24:06.140Z,3.50
2023-01-28T01:26:34.770Z,3.50
2023-01-28T01:29:03.406Z,3.30
2023-01-28T01:31:32.052Z,3.70
2023-01-28T01:34:02.315Z,3.30
2023-01-28T01:36:32.537Z,3.37
2023-01-28T01:39:02.632Z,3.03
2023-01-28T01:41:33.659Z,2.83
2023-01-28T01:44:03.783Z,3.40
2023-01-28T01:46:37.941Z,2.73
2023-01-28T01:49:16.223Z,3.40
2023-01-28T01:51:47.976Z,4.73
2023-01-28T01:54:19.338Z,3.83
2023-01-28T01:56:52.218Z,3.10
2023-01-28T01:59:26.201Z,3.60
2023-01-28T02:01:56.274Z,3.10
2023-01-28T02:04:28.696Z,3.70
2023-01-28T02:06:58.368Z,3.10
2023-01-28T02:09:30.710Z,3.10
2023-01-28T02:12:05.933Z,3.50
2023-01-28T02:14:38.415Z,3.37
2023-01-28T02:17:07.243Z,3.70
2023-01-28T02:19:40.008Z,3.80
2023-01-28T02:22:29.907Z,3.80
2023-01-28T02:25:20.797Z,3.43
2023-01-28T02:28:11.396Z,3.53
2023-01-28T02:30:44.175Z,3.43
2023-01-28T02:33:19.979Z,3.87
2023-01-28T02:35:53.496Z,3.60
2023-01-28T02:38:28.077Z,3.30
2023-01-28T02:41:05.967Z,3.70
2023-01-28T02:43:39.710Z,3.20
2023-01-28T02:46:38.490Z,3.57
2023-01-28T02:49:10.623Z,3.57
2023-01-28T02:51:54.363Z,3.17
2023-01-28T02:54:36.731Z,3.13
2023-01-28T02:57:18.904Z,3.33
2023-01-28T02:59:57.825Z,3.40
2023-01-28T03:02:33.862Z,3.60
2023-01-28T03:05:08.989Z,3.50
2023-01-28T03:07:40.037Z,3.63
2023-01-28T03:10:14.662Z,3.07
2023-01-28T03:13:04.944Z,3.37
2023-01-28T03:16:00.035Z,3.50
2023-01-28T03:18:49.716Z,3.23
2023-01-28T03:21:40.952Z,3.20
2023-01-28T03:24:31.520Z,3.53
2023-01-28T03:27:27.827Z,3.63
2023-01-28T03:30:26.039Z,3.10
2023-01-28T03:33:15.416Z,2.83
2023-01-28T03:36:02.070Z,3.33
2023-01-28T03:38:42.150Z,3.47
2023-01-28T03:41:22.972Z,3.63
2023-01-28T03:43:53.655Z,3.70
2023-01-28T03:46:22.417Z,3.27
2023-01-28T03:48:52.578Z,3.20
2023-01-28T03:51:21.437Z,3.07
2023-01-28T03:53:50.171Z,3.10
2023-01-28T03:56:20.027Z,3.40
2023-01-28T03:58:53.121Z,3.10
2023-01-28T04:01:22.918Z,3.30
2023-01-28T04:03:53.173Z,3.60
2023-01-28T04:06:31.177Z,3.00
2023-01-28T04:09:14.844Z,3.20
2023-01-28T04:11:52.969Z,3.53
2023-01-28T04:14:37.060Z,3.40
2023-01-28T04:17:10.832Z,3.37
2023-01-28T04:19:42.057Z,3.07
2023-01-28T04:22:12.846Z,3.30
2023-01-28T04:24:43.390Z,3.67
2023-01-28T04:27:12.898Z,2.97
2023-01-28T04:29:41.553Z,3.20
2023-01-28T04:32:32.655Z,3.20
2023-01-28T04:35:11.337Z,3.60
2023-01-28T04:38:06.134Z,3.43
2023-01-28T04:40:53.099Z,3.20
2023-01-28T04:43:28.597Z,3.90
2023-01-28T04:46:16.117Z,3.00
2023-01-28T04:48:55.276Z,3.60
2023-01-28T04:51:54.448Z,3.03
2023-01-28T04:54:23.143Z,3.00
2023-01-28T04:56:52.116Z,3.67
2023-01-28T04:59:21.195Z,2.97
2023-01-28T05:01:50.233Z,3.43
2023-01-28T05:04:21.538Z,3.27
2023-01-28T05:06:50.338Z,3.20
2023-01-28T05:09:25.591Z,3.37
2023-01-28T05:11:55.150Z,3.33
2023-01-28T05:14:24.808Z,3.97
2023-01-28T05:17:01.291Z,3.07
2023-01-28T05:19:30.084Z,2.83
2023-01-28T05:21:59.391Z,2.90
2023-01-28T05:24:45.452Z,2.80
2023-01-28T05:27:14.135Z,3.60
2023-01-28T05:29:43.624Z,3.10
2023-01-28T05:32:13.225Z,3.70
2023-01-28T05:34:41.893Z,4.03
2023-01-28T05:37:14.380Z,3.63
2023-01-28T05:39:44.418Z,4.80
2023-01-28T05:42:13.145Z,4.47
2023-01-28T05:44:46.826Z,3.60
2023-01-28T05:47:25.285Z,3.37
2023-01-28T05:50:01.653Z,3.70
2023-01-28T05:52:33.282Z,3.87
2023-01-28T05:55:04.318Z,4.27
2023-01-28T05:57:33.776Z,3.90
2023-01-28T06:00:05.772Z,3.80
2023-01-28T06:02:43.486Z,3.50
2023-01-28T06:05:15.593Z,3.50
2023-01-28T06:07:46.750Z,3.67
2023-01-28T06:10:18.192Z,3.70
2023-01-28T06:12:47.532Z,3.77
2023-01-28T06:15:35.018Z,3.63
2023-01-28T06:18:16.616Z,4.10
2023-01-28T06:20:45.528Z,3.70
2023-01-28T06:23:14.309Z,3.87
2023-01-28T06:25:44.666Z,3.70
2023-01-28T06:28:16.424Z,4.17
2023-01-28T06:30:45.997Z,4.13
2023-01-28T06:33:14.701Z,4.43
2023-01-28T06:35:44.946Z,4.93
2023-01-28T06:38:14.149Z,4.20
2023-01-28T06:40:44.117Z,4.50
2023-01-28T06:43:12.730Z,5.20
2023-01-28T06:45:41.423Z,4.37
2023-01-28T06:48:10.227Z,4.60
2023-01-28T06:50:39.076Z,4.97
2023-01-28T06:53:07.677Z,4.23
2023-01-28T06:55:36.395Z,6.23
2023-01-28T06:58:06.411Z,5.33
2023-01-28T07:00:35.084Z,4.67
2023-01-28T07:03:03.767Z,4.70
2023-01-28T07:05:32.468Z,5.50
2023-01-28T07:08:02.351Z,5.30
2023-01-28T07:10:31.220Z,4.97
2023-01-28T07:12:59.791Z,5.37
2023-01-28T07:15:29.967Z,6.27
2023-01-28T07:17:59.578Z,7.67
2023-01-28T07:20:28.604Z,5.73
2023-01-28T07:22:57.183Z,6.43
2023-01-28T07:25:25.837Z,7.20
2023-01-28T07:27:55.195Z,8.37
2023-01-28T07:30:24.531Z,11.87
2023-01-28T07:32:58.783Z,4.87
2023-01-28T07:35:28.599Z,5.67
2023-01-28T07:37:58.667Z,5.10
2023-01-28T07:40:28.798Z,6.63
2023-01-28T07:42:57.635Z,6.40
2023-01-28T07:45:30.768Z,5.90
2023-01-28T07:48:02.185Z,5.90
2023-01-28T07:50:32.894Z,5.37
2023-01-28T07:53:03.927Z,6.90
2023-01-28T07:55:35.910Z,7.13
2023-01-28T07:58:06.385Z,7.93
2023-01-28T08:00:37.145Z,7.50
2023-01-28T08:03:16.000Z,7.50
2023-01-28T08:05:47.245Z,6.87
2023-01-28T08:08:16.586Z,6.87
2023-01-28T08:10:45.366Z,7.87
2023-01-28T08:13:15.115Z,7.30
2023-01-28T08:15:44.078Z,7.93
2023-01-28T08:18:17.021Z,7.73
2023-01-28T08:20:47.544Z,6.10
2023-01-28T08:23:17.855Z,7.60
2023-01-28T08:25:47.427Z,8.07
2023-01-28T08:28:16.911Z,7.43
2023-01-28T08:30:46.007Z,7.23
2023-01-28T08:33:17.165Z,7.63
2023-01-28T08:35:46.122Z,7.20
2023-01-28T08:38:16.400Z,6.00
2023-01-28T08:40:45.076Z,6.53
2023-01-28T08:43:13.926Z,7.60
2023-01-28T08:45:42.772Z,7.93
2023-01-28T08:48:16.995Z,8.23
2023-01-28T08:50:46.203Z,10.83
2023-01-28T08:53:16.829Z,12.30
2023-01-28T08:55:45.777Z,10.67
2023-01-28T08:58:15.980Z,10.27
2023-01-28T09:00:46.454Z,10.80
2023-01-28T09:03:16.661Z,12.43
2023-01-28T09:05:45.383Z,11.17
2023-01-28T09:08:15.983Z,12.27
2023-01-28T09:10:45.760Z,11.47
2023-01-28T09:13:16.580Z,11.73
2023-01-28T09:15:45.559Z,11.63
2023-01-28T09:18:15.758Z,11.93
2023-01-28T09:20:44.433Z,10.57
2023-01-28T09:23:13.547Z,10.50
2023-01-28T09:25:42.529Z,11.10
2023-01-28T09:28:11.223Z,10.80
2023-01-28T09:30:40.032Z,11.17
2023-01-28T09:33:09.593Z,10.43
2023-01-28T09:35:39.733Z,11.70
2023-01-28T09:38:08.350Z,12.17
2023-01-28T09:40:42.188Z,10.33
2023-01-28T09:43:25.992Z,10.27
2023-01-28T09:45:57.146Z,10.53
2023-01-28T09:48:32.986Z,11.37
2023-01-28T09:51:03.315Z,11.70
2023-01-28T09:53:34.463Z,12.23
2023-01-28T09:56:05.346Z,14.10
2023-01-28T09:58:34.149Z,14.50
2023-01-28T10:01:08.237Z,13.33
2023-01-28T10:03:51.889Z,12.77
2023-01-28T10:06:29.612Z,12.53
2023-01-28T10:09:20.743Z,13.43
2023-01-28T10:12:03.701Z,13.13
2023-01-28T10:14:46.044Z,14.87
2023-01-28T10:17:19.257Z,15.50
2023-01-28T10:19:51.684Z,14.73
2023-01-28T10:22:25.870Z,13.97
2023-01-28T10:25:01.983Z,14.47
2023-01-28T10:27:32.782Z,13.70
2023-01-28T10:30:16.702Z,9.07
2023-01-28T10:32:52.771Z,10.70
2023-01-28T10:35:21.753Z,10.17
2023-01-28T10:38:01.940Z,5.87
2023-01-28T10:40:30.858Z,8.17
2023-01-28T10:42:59.442Z,8.37
2023-01-28T10:45:32.073Z,8.30
2023-01-28T10:48:05.148Z,8.70
2023-01-28T10:50:35.542Z,8.47
2023-01-28T10:53:07.544Z,7.67
2023-01-28T10:55:51.833Z,6.80
2023-01-28T10:58:23.729Z,6.77
2023-01-28T11:00:55.945Z,7.17
2023-01-28T11:03:28.001Z,7.50
2023-01-28T11:05:58.069Z,6.93
2023-01-28T11:08:30.251Z,6.93
2023-01-28T11:10:59.550Z,6.57
2023-01-28T11:13:29.838Z,5.33
2023-01-28T11:16:03.312Z,4.33
2023-01-28T11:18:34.547Z,27.17
2023-01-28T11:21:06.142Z,8.07
2023-01-28T11:23:41.284Z,7.97
2023-01-28T11:26:17.357Z,7.13
2023-01-28T11:28:46.954Z,6.30
2023-01-28T11:31:17.760Z,7.80
2023-01-28T11:33:52.091Z,7.23
2023-01-28T11:36:23.306Z,7.77
2023-01-28T11:38:55.560Z,7.40
2023-01-28T11:41:31.079Z,7.73
2023-01-28T11:44:02.897Z,8.70
2023-01-28T11:46:56.783Z,7.10
2023-01-28T11:49:38.281Z,7.43
2023-01-28T11:52:15.983Z,7.60
2023-01-28T11:54:57.146Z,7.90
2023-01-28T11:57:27.741Z,7.33
2023-01-28T12:00:19.369Z,6.43
2023-01-28T12:02:54.825Z,6.00
2023-01-28T12:05:43.384Z,7.07
2023-01-28T12:08:23.396Z,6.63
2023-01-28T12:11:09.063Z,6.87
2023-01-28T12:14:00.701Z,7.10
2023-01-28T12:16:54.437Z,6.60
2023-01-28T12:19:42.246Z,7.80
2023-01-28T12:22:54.003Z,9.17
2023-01-28T12:25:35.286Z,6.63
2023-01-28T12:28:17.379Z,6.37
2023-01-28T12:31:05.753Z,13.10
2023-01-28T12:34:01.640Z,7.47
2023-01-28T12:36:44.360Z,6.70
2023-01-28T12:39:23.329Z,7.13
2023-01-28T12:41:57.335Z,7.63
2023-01-28T12:44:34.497Z,8.07
2023-01-28T12:47:07.528Z,7.50
2023-01-28T12:49:40.872Z,7.70
2023-01-28T12:52:16.375Z,7.63
2023-01-28T12:54:55.088Z,7.70
2023-01-28T12:57:27.772Z,8.60
2023-01-28T13:00:04.243Z,10.10
2023-01-28T13:02:37.528Z,8.50
2023-01-28T13:05:12.330Z,8.60
2023-01-28T13:07:49.742Z,7.60
2023-01-28T13:10:25.790Z,7.40
2023-01-28T13:12:55.254Z,7.13
2023-01-28T13:15:26.615Z,8.17
2023-01-28T13:17:57.675Z,7.70
2023-01-28T13:20:38.670Z,7.53
2023-01-28T13:23:23.074Z,7.83
2023-01-28T13:25:53.537Z,8.00
2023-01-28T13:28:30.990Z,7.43
2023-01-28T13:31:06.781Z,7.30
2023-01-28T13:33:37.647Z,7.93
2023-01-28T13:36:21.081Z,8.70
2023-01-28T13:39:01.187Z,8.07
2023-01-28T13:41:40.441Z,8.87
2023-01-28T13:44:20.498Z,7.73
2023-01-28T13:46:50.840Z,6.97
2023-01-28T13:49:27.835Z,7.43
2023-01-28T13:52:08.987Z,7.60
2023-01-28T13:54:39.820Z,7.97
2023-01-28T13:58:09.087Z,7.30
2023-01-28T14:00:46.601Z,7.80
2023-01-28T14:03:41.751Z,7.27
2023-01-28T14:06:52.793Z,6.87
2023-01-28T14:09:38.287Z,7.40
2023-01-28T14:12:50.908Z,7.90
2023-01-28T14:15:40.585Z,7.33
2023-01-28T14:18:20.612Z,7.60
2023-01-28T14:20:51.537Z,7.93
2023-01-28T14:23:22.321Z,7.47
2023-01-28T14:26:05.284Z,7.50
2023-01-28T14:28:45.727Z,7.53
2023-01-28T14:31:19.800Z,7.90
2023-01-28T14:33:49.558Z,7.67
2023-01-28T14:36:20.006Z,7.90
2023-01-28T14:38:49.151Z,7.63
2023-01-28T14:41:25.009Z,8.33
2023-01-28T14:43:55.984Z,8.13
2023-01-28T14:46:34.383Z,8.93
2023-01-28T14:49:25.580Z,10.30
2023-01-28T14:52:20.572Z,8.43
2023-01-28T14:55:01.718Z,8.27
2023-01-28T14:57:49.943Z,9.17
2023-01-28T15:00:22.821Z,10.77
2023-01-28T15:02:51.923Z,8.37
2023-01-28T15:05:23.741Z,9.50
2023-01-28T15:07:54.397Z,8.73
2023-01-28T15:10:29.374Z,8.00
2023-01-28T15:13:00.969Z,7.53
2023-01-28T15:15:33.095Z,8.07
2023-01-28T15:18:05.872Z,6.27
2023-01-28T15:20:34.882Z,6.87
2023-01-28T15:23:08.913Z,6.67
2023-01-28T15:25:38.941Z,7.07
2023-01-28T15:28:07.663Z,6.27
2023-01-28T15:30:37.193Z,6.53
2023-01-28T15:33:08.016Z,5.27
2023-01-28T15:35:38.389Z,5.20
2023-01-28T15:38:10.278Z,5.77
2023-01-28T15:40:44.365Z,6.23
2023-01-28T15:43:21.313Z,5.57
2023-01-28T15:45:51.637Z,7.00
2023-01-28T15:48:20.527Z,6.50
2023-01-28T15:50:49.234Z,6.30
2023-01-28T15:53:19.364Z,6.30
2023-01-28T15:55:48.014Z,7.03
2023-01-28T15:58:20.189Z,7.30
2023-01-28T16:00:50.644Z,7.20
2023-01-28T16:03:22.114Z,8.47
2023-01-28T16:06:03.182Z,8.63
2023-01-28T16:08:39.716Z,9.10
2023-01-28T16:11:11.603Z,7.97
2023-01-28T16:13:44.913Z,8.93
2023-01-28T16:16:14.128Z,9.57
2023-01-28T16:18:47.565Z,9.60
2023-01-28T16:21:24.027Z,10.17
2023-01-28T16:24:01.826Z,10.80
2023-01-28T16:26:32.641Z,9.53
2023-01-28T16:29:12.957Z,11.07
2023-01-28T16:31:41.660Z,10.83
2023-01-28T16:34:11.969Z,10.53
2023-01-28T16:36:40.670Z,9.50
2023-01-28T16:39:10.817Z,9.20
2023-01-28T16:41:42.481Z,9.70
2023-01-28T16:44:14.266Z,9.20
2023-01-28T16:46:43.277Z,10.23
2023-01-28T16:49:12.355Z,10.83
2023-01-28T16:51:44.085Z,10.70
2023-01-28T16:54:17.394Z,9.33
2023-01-28T16:56:47.008Z,10.27
2023-01-28T16:59:16.527Z,10.40
2023-01-28T17:01:45.916Z,9.97
2023-01-28T17:04:14.810Z,11.67
2023-01-28T17:06:44.864Z,10.83
2023-01-28T17:09:15.889Z,10.10
2023-01-28T17:11:44.595Z,10.57
2023-01-28T17:14:13.241Z,11.73
2023-01-28T17:16:42.892Z,11.57
2023-01-28T17:19:11.551Z,10.00
2023-01-28T17:21:40.239Z,11.50
2023-01-28T17:24:09.720Z,10.57
2023-01-28T17:26:39.957Z,10.60
2023-01-28T17:29:09.395Z,10.30
2023-01-28T17:31:38.308Z,10.90
2023-01-28T17:34:08.268Z,10.67
2023-01-28T17:36:36.934Z,11.37
2023-01-28T17:39:07.606Z,11.33
2023-01-28T17:41:36.323Z,11.70
2023-01-28T17:44:07.024Z,12.00
2023-01-28T17:46:35.707Z,12.00
2023-01-28T17:49:04.785Z,13.73
2023-01-28T17:51:33.492Z,12.60
2023-01-28T17:54:02.104Z,12.60
2023-01-28T17:56:32.114Z,12.93
2023-01-28T17:59:03.943Z,13.47
2023-01-28T18:01:37.316Z,13.37
2023-01-28T18:04:06.385Z,13.37
2023-01-28T18:06:36.155Z,14.47
2023-01-28T18:09:07.262Z,16.80
2023-01-28T18:11:36.112Z,15.87
2023-01-28T18:14:04.721Z,16.40
2023-01-28T18:16:34.780Z,17.83
2023-01-28T18:19:03.413Z,18.23
2023-01-28T18:21:46.469Z,17.33
2023-01-28T18:24:20.651Z,20.23
2023-01-28T18:26:49.404Z,19.17
2023-01-28T18:29:20.887Z,19.70
2023-01-28T18:31:52.108Z,19.10
2023-01-28T18:34:20.961Z,21.50
2023-01-28T18:36:49.959Z,19.53
2023-01-28T18:39:19.141Z,18.50
2023-01-28T18:41:47.871Z,17.73
2023-01-28T18:44:17.424Z,17.30
2023-01-28T18:46:46.111Z,17.57
2023-01-28T18:49:16.427Z,17.97
2023-01-28T18:51:45.233Z,17.37
2023-01-28T18:54:16.163Z,17.17
2023-01-28T18:56:45.556Z,17.30
2023-01-28T18:59:15.670Z,17.37
2023-01-28T19:01:47.801Z,17.80
2023-01-28T19:04:19.270Z,17.00
2023-01-28T19:06:48.457Z,17.37
2023-01-28T19:09:18.643Z,16.60
2023-01-28T19:11:48.524Z,16.17
2023-01-28T19:14:17.335Z,15.77
2023-01-28T19:16:46.282Z,16.03
2023-01-28T19:19:14.903Z,18.00
2023-01-28T19:21:45.015Z,17.73
2023-01-28T19:24:15.195Z,16.67
2023-01-28T19:26:45.351Z,18.87
2023-01-28T19:29:16.335Z,16.67
2023-01-28T19:31:49.189Z,17.00
2023-01-28T19:34:18.073Z,16.30
2023-01-28T19:36:48.212Z,17.47
2023-01-28T19:39:17.343Z,15.47
2023-01-28T19:41:46.085Z,14.53
2023-01-28T19:44:14.724Z,15.83
2023-01-28T19:46:43.487Z,15.83
2023-01-28T19:49:13.204Z,16.27
2023-01-28T19:51:41.750Z,17.50
2023-01-28T19:54:11.809Z,16.87
2023-01-28T19:56:40.566Z,15.50
2023-01-28T19:59:09.190Z,16.47
2023-01-28T20:01:37.854Z,15.37
2023-01-28T20:04:06.491Z,15.90
2023-01-28T20:06:35.881Z,17.27
2023-01-28T20:09:07.838Z,15.50
2023-01-28T20:11:38.260Z,15.50
2023-01-28T20:14:07.077Z,16.53
2023-01-28T20:16:37.136Z,15.47
2023-01-28T20:19:08.216Z,16.00
2023-01-28T20:21:37.268Z,18.63
2023-01-28T20:24:06.716Z,17.37
2023-01-28T20:26:38.324Z,15.97
2023-01-28T20:29:09.606Z,15.90
2023-01-28T20:31:40.814Z,14.80
2023-01-28T20:34:13.768Z,14.97
2023-01-28T20:36:42.871Z,14.97
2023-01-28T20:39:12.069Z,15.57
2023-01-28T20:41:42.191Z,17.00
2023-01-28T20:44:10.807Z,15.17
2023-01-28T20:46:39.405Z,15.43
2023-01-28T20:49:08.297Z,13.97
2023-01-28T20:51:38.407Z,12.97
2023-01-28T20:54:07.081Z,14.03
2023-01-28T20:56:35.713Z,13.57
2023-01-28T20:59:07.629Z,13.77
2023-01-28T21:01:37.445Z,14.93
2023-01-28T21:04:08.506Z,13.43
2023-01-28T21:06:40.017Z,13.70
2023-01-28T21:09:09.210Z,13.63
2023-01-28T21:11:37.817Z,12.83
2023-01-28T21:14:07.824Z,13.33
2023-01-28T21:16:41.235Z,13.77
2023-01-28T21:19:11.031Z,12.17
2023-01-28T21:21:42.686Z,11.63
2023-01-28T21:24:12.637Z,13.33
2023-01-28T21:26:41.358Z,13.47
2023-01-28T21:29:11.556Z,10.67
2023-01-28T21:31:40.183Z,11.63
2023-01-28T21:34:09.300Z,9.50
2023-01-28T21:36:38.110Z,12.50
2023-01-28T21:39:06.900Z,13.47
2023-01-28T21:41:35.502Z,12.23
2023-01-28T21:44:04.128Z,10.07
2023-01-28T21:46:35.051Z,9.73
2023-01-28T21:49:05.510Z,9.17
2023-01-28T21:51:39.621Z,9.77
2023-01-28T21:54:11.501Z,8.30
2023-01-28T21:56:40.243Z,8.37
2023-01-28T21:59:26.128Z,8.43
2023-01-28T22:01:56.545Z,9.37
2023-01-28T22:04:26.013Z,8.87
2023-01-28T22:06:55.745Z,7.63
2023-01-28T22:09:24.912Z,8.40
2023-01-28T22:11:53.549Z,7.30
2023-01-28T22:14:22.557Z,7.53
2023-01-28T22:16:51.214Z,7.17
2023-01-28T22:19:21.403Z,7.10
2023-01-28T22:21:50.070Z,6.77
2023-01-28T22:24:20.221Z,6.00
2023-01-28T22:26:49.228Z,6.63
2023-01-28T22:29:19.193Z,6.53
2023-01-28T22:31:48.303Z,5.80
2023-01-28T22:34:17.812Z,5.93
2023-01-28T22:36:48.241Z,6.10
2023-01-28T22:39:18.100Z,6.00
2023-01-28T22:41:47.122Z,5.80
2023-01-28T22:44:16.261Z,6.30
2023-01-28T22:46:45.004Z,5.67
2023-01-28T22:49:15.150Z,5.87
2023-01-28T22:51:44.191Z,6.47
2023-01-28T22:54:15.194Z,5.57
2023-01-28T22:56:43.957Z,6.60
2023-01-28T22:59:13.084Z,6.47
2023-01-28T23:01:41.827Z,6.10
2023-01-28T23:04:10.494Z,5.80
2023-01-28T23:06:39.105Z,6.20
2023-01-28T23:09:07.757Z,6.33
2023-01-28T23:11:38.016Z,5.93
2023-01-28T23:14:24.100Z,6.50
2023-01-28T23:17:10.530Z,5.23
2023-01-28T23:19:56.400Z,5.27
2023-01-28T23:22:46.765Z,5.80
2023-01-28T23:25:16.039Z,5.10
2023-01-28T23:27:46.280Z,6.00
2023-01-28T23:30:16.011Z,6.23
2023-01-28T23:32:48.516Z,6.70
2023-01-28T23:35:19.227Z,6.37
2023-01-28T23:37:47.984Z,6.60
2023-01-28T23:40:17.354Z,7.20
2023-01-28T23:42:51.390Z,6.10
2023-01-28T23:45:20.605Z,6.90
2023-01-28T23:47:49.735Z,7.70
2023-01-28T23:50:19.323Z,6.00
2023-01-28T23:52:48.073Z,5.80
2023-01-28T23:55:17.172Z,5.03
2023-01-28T23:57:45.707Z,5.20
